sensor_id;sensor_type;location;lat;lon;timestamp;P1;durP1;ratioP1;P2;durP2;ratioP2
30466;SDS011;17258;52.560;13.046;2022-07-22T00:00:25;3.88;;;3.58;;
30466;SDS011;17258;52.560;13.046;2022-07-22T00:10:25;3.30;;;2.92;;
30466;SDS011;17258;52.560;13.046;2022-07-22T00:20:26;2.67;;;2.47;;
30466;SDS011;17258;52.560;13.046;2022-07-22T00:30:27;3.87;;;2.93;;
30466;SDS011;17258;52.560;13.046;2022-07-22T00:40:28;3.00;;;2.75;;
30466;SDS011;17258;52.560;13.046;2022-07-22T00:50:28;2.60;;;2.33;;
30466;SDS011;17258;52.560;13.046;2022-07-22T01:00:29;2.63;;;2.40;;
30466;SDS011;17258;52.560;13.046;2022-07-22T01:10:31;3.50;;;2.53;;
30466;SDS011;17258;52.560;13.046;2022-07-22T01:20:32;5.13;;;2.37;;
30466;SDS011;17258;52.560;13.046;2022-07-22T01:30:34;2.47;;;2.28;;
30466;SDS011;17258;52.560;13.046;2022-07-22T01:40:35;2.30;;;2.10;;
30466;SDS011;17258;52.560;13.046;2022-07-22T01:50:36;2.37;;;2.17;;
30466;SDS011;17258;52.560;13.046;2022-07-22T02:00:37;1.77;;;1.67;;
30466;SDS011;17258;52.560;13.046;2022-07-22T02:10:37;2.60;;;2.30;;
30466;SDS011;17258;52.560;13.046;2022-07-22T02:20:38;1.92;;;1.83;;
30466;SDS011;17258;52.560;13.046;2022-07-22T02:30:39;2.17;;;2.08;;
30466;SDS011;17258;52.560;13.046;2022-07-22T02:40:39;2.50;;;2.30;;
30466;SDS011;17258;52.560;13.046;2022-07-22T02:50:44;2.40;;;2.20;;
30466;SDS011;17258;52.560;13.046;2022-07-22T03:00:48;2.67;;;2.47;;
30466;SDS011;17258;52.560;13.046;2022-07-22T03:10:49;3.40;;;2.63;;
30466;SDS011;17258;52.560;13.046;2022-07-22T03:20:49;2.47;;;2.27;;
30466;SDS011;17258;52.560;13.046;2022-07-22T03:30:50;4.78;;;2.78;;
30466;SDS011;17258;52.560;13.046;2022-07-22T03:40:51;3.13;;;2.93;;
30466;SDS011;17258;52.560;13.046;2022-07-22T03:50:51;3.50;;;3.28;;
30466;SDS011;17258;52.560;13.046;2022-07-22T04:00:52;4.47;;;3.95;;
30466;SDS011;17258;52.560;13.046;2022-07-22T04:10:54;4.65;;;3.50;;
30466;SDS011;17258;52.560;13.046;2022-07-22T04:20:54;4.23;;;3.67;;
30466;SDS011;17258;52.560;13.046;2022-07-22T04:30:55;4.63;;;3.63;;
30466;SDS011;17258;52.560;13.046;2022-07-22T04:40:55;4.13;;;3.83;;
30466;SDS011;17258;52.560;13.046;2022-07-22T04:50:58;4.57;;;4.07;;
30466;SDS011;17258;52.560;13.046;2022-07-22T05:01:00;4.47;;;4.07;;
30466;SDS011;17258;52.560;13.046;2022-07-22T05:11:01;3.97;;;3.67;;
30466;SDS011;17258;52.560;13.046;2022-07-22T05:21:02;5.45;;;4.95;;
30466;SDS011;17258;52.560;13.046;2022-07-22T05:31:04;5.28;;;4.78;;
30466;SDS011;17258;52.560;13.046;2022-07-22T05:41:04;5.82;;;5.15;;
30466;SDS011;17258;52.560;13.046;2022-07-22T05:51:10;5.15;;;4.65;;
30466;SDS011;17258;52.560;13.046;2022-07-22T06:01:12;6.13;;;5.63;;
30466;SDS011;17258;52.560;13.046;2022-07-22T06:11:14;6.45;;;5.25;;
30466;SDS011;17258;52.560;13.046;2022-07-22T06:21:15;5.28;;;4.78;;
30466;SDS011;17258;52.560;13.046;2022-07-22T06:31:15;7.53;;;4.80;;
30466;SDS011;17258;52.560;13.046;2022-07-22T06:41:16;5.40;;;4.50;;
30466;SDS011;17258;52.560;13.046;2022-07-22T06:51:20;4.70;;;4.30;;
30466;SDS011;17258;52.560;13.046;2022-07-22T07:01:21;3.75;;;3.45;;
30466;SDS011;17258;52.560;13.046;2022-07-22T07:11:22;3.87;;;3.57;;
30466;SDS011;17258;52.560;13.046;2022-07-22T07:21:22;4.13;;;3.60;;
30466;SDS011;17258;52.560;13.046;2022-07-22T07:31:23;3.33;;;3.13;;
30466;SDS011;17258;52.560;13.046;2022-07-22T07:41:24;4.20;;;3.47;;
30466;SDS011;17258;52.560;13.046;2022-07-22T07:51:24;5.23;;;3.83;;
30466;SDS011;17258;52.560;13.046;2022-07-22T08:01:25;3.77;;;3.47;;
30466;SDS011;17258;52.560;13.046;2022-07-22T08:11:26;3.97;;;3.50;;
30466;SDS011;17258;52.560;13.046;2022-07-22T08:21:26;3.63;;;3.33;;
30466;SDS011;17258;52.560;13.046;2022-07-22T08:31:27;3.90;;;2.97;;
30466;SDS011;17258;52.560;13.046;2022-07-22T08:41:28;3.60;;;3.30;;
30466;SDS011;17258;52.560;13.046;2022-07-22T08:51:36;4.17;;;2.70;;
30466;SDS011;17258;52.560;13.046;2022-07-22T09:01:36;3.20;;;2.90;;
30466;SDS011;17258;52.560;13.046;2022-07-22T09:11:37;1.63;;;1.53;;
30466;SDS011;17258;52.560;13.046;2022-07-22T09:21:39;1.97;;;1.50;;
30466;SDS011;17258;52.560;13.046;2022-07-22T09:31:43;1.88;;;1.10;;
30466;SDS011;17258;52.560;13.046;2022-07-22T09:42:02;1.55;;;1.45;;
30466;SDS011;17258;52.560;13.046;2022-07-22T09:52:06;1.70;;;1.60;;
30466;SDS011;17258;52.560;13.046;2022-07-22T10:02:07;2.03;;;1.93;;
30466;SDS011;17258;52.560;13.046;2022-07-22T10:12:10;1.65;;;1.55;;
30466;SDS011;17258;52.560;13.046;2022-07-22T10:43:08;1.80;;;1.70;;
30466;SDS011;17258;52.560;13.046;2022-07-22T10:53:11;1.50;;;1.42;;
30466;SDS011;17258;52.560;13.046;2022-07-22T11:03:24;2.20;;;2.00;;
30466;SDS011;17258;52.560;13.046;2022-07-22T11:13:35;1.88;;;1.77;;
30466;SDS011;17258;52.560;13.046;2022-07-22T11:23:40;2.92;;;2.20;;
30466;SDS011;17258;52.560;13.046;2022-07-22T11:33:41;1.45;;;1.40;;
30466;SDS011;17258;52.560;13.046;2022-07-22T11:43:46;1.52;;;1.17;;
30466;SDS011;17258;52.560;13.046;2022-07-22T11:53:48;0.90;;;0.90;;
30466;SDS011;17258;52.560;13.046;2022-07-22T12:03:53;1.40;;;1.30;;
30466;SDS011;17258;52.560;13.046;2022-07-22T12:13:56;1.30;;;1.20;;
30466;SDS011;17258;52.560;13.046;2022-07-22T12:24:12;1.20;;;1.10;;
30466;SDS011;17258;52.560;13.046;2022-07-22T12:34:13;0.93;;;0.93;;
30466;SDS011;17258;52.560;13.046;2022-07-22T12:44:26;0.90;;;0.90;;
30466;SDS011;17258;52.560;13.046;2022-07-22T12:54:27;0.90;;;0.90;;
30466;SDS011;17258;52.560;13.046;2022-07-22T13:04:27;0.90;;;0.90;;
30466;SDS011;17258;52.560;13.046;2022-07-22T13:14:28;2.08;;;0.70;;
30466;SDS011;17258;52.560;13.046;2022-07-22T13:24:29;0.93;;;0.90;;
30466;SDS011;17258;52.560;13.046;2022-07-22T13:34:29;1.20;;;1.10;;
30466;SDS011;17258;52.560;13.046;2022-07-22T13:44:30;0.98;;;0.90;;
30466;SDS011;17258;52.560;13.046;2022-07-22T13:54:32;1.02;;;1.00;;
30466;SDS011;17258;52.560;13.046;2022-07-22T14:04:33;1.58;;;0.85;;
30466;SDS011;17258;52.560;13.046;2022-07-22T14:14:35;0.80;;;0.77;;
30466;SDS011;17258;52.560;13.046;2022-07-22T14:24:36;0.98;;;0.90;;
30466;SDS011;17258;52.560;13.046;2022-07-22T14:34:36;0.87;;;0.87;;
30466;SDS011;17258;52.560;13.046;2022-07-22T14:44:37;1.00;;;1.00;;
30466;SDS011;17258;52.560;13.046;2022-07-22T14:54:38;1.00;;;1.00;;
30466;SDS011;17258;52.560;13.046;2022-07-22T15:04:38;1.20;;;1.10;;
30466;SDS011;17258;52.560;13.046;2022-07-22T15:14:39;1.23;;;1.00;;
30466;SDS011;17258;52.560;13.046;2022-07-22T15:24:40;0.80;;;0.80;;
30466;SDS011;17258;52.560;13.046;2022-07-22T15:34:41;2.88;;;1.15;;
30466;SDS011;17258;52.560;13.046;2022-07-22T15:44:42;2.78;;;1.40;;
30466;SDS011;17258;52.560;13.046;2022-07-22T15:54:43;1.70;;;1.60;;
30466;SDS011;17258;52.560;13.046;2022-07-22T16:04:43;1.13;;;1.13;;
30466;SDS011;17258;52.560;13.046;2022-07-22T16:14:44;1.57;;;1.23;;
30466;SDS011;17258;52.560;13.046;2022-07-22T16:24:45;1.27;;;1.17;;
30466;SDS011;17258;52.560;13.046;2022-07-22T16:34:45;1.07;;;1.07;;
30466;SDS011;17258;52.560;13.046;2022-07-22T16:44:46;2.00;;;1.40;;
30466;SDS011;17258;52.560;13.046;2022-07-22T16:54:47;1.80;;;1.70;;
30466;SDS011;17258;52.560;13.046;2022-07-22T17:04:47;2.10;;;1.30;;
30466;SDS011;17258;52.560;13.046;2022-07-22T17:14:48;1.55;;;1.45;;
30466;SDS011;17258;52.560;13.046;2022-07-22T17:24:49;2.07;;;1.87;;
30466;SDS011;17258;52.560;13.046;2022-07-22T17:34:49;1.60;;;1.50;;
30466;SDS011;17258;52.560;13.046;2022-07-22T17:44:50;1.63;;;1.53;;
30466;SDS011;17258;52.560;13.046;2022-07-22T17:54:51;1.87;;;1.77;;
30466;SDS011;17258;52.560;13.046;2022-07-22T18:04:51;1.40;;;1.30;;
30466;SDS011;17258;52.560;13.046;2022-07-22T18:14:52;2.05;;;1.80;;
30466;SDS011;17258;52.560;13.046;2022-07-22T18:24:53;1.77;;;1.47;;
30466;SDS011;17258;52.560;13.046;2022-07-22T18:34:53;2.20;;;2.07;;
30466;SDS011;17258;52.560;13.046;2022-07-22T18:44:54;1.83;;;1.70;;
30466;SDS011;17258;52.560;13.046;2022-07-22T18:54:55;1.33;;;1.27;;
30466;SDS011;17258;52.560;13.046;2022-07-22T19:04:55;2.00;;;1.73;;
30466;SDS011;17258;52.560;13.046;2022-07-22T19:14:56;1.25;;;1.23;;
30466;SDS011;17258;52.560;13.046;2022-07-22T19:24:57;2.13;;;1.83;;
30466;SDS011;17258;52.560;13.046;2022-07-22T19:34:57;2.67;;;1.90;;
30466;SDS011;17258;52.560;13.046;2022-07-22T19:44:58;2.30;;;1.93;;
30466;SDS011;17258;52.560;13.046;2022-07-22T19:54:59;2.83;;;1.93;;
30466;SDS011;17258;52.560;13.046;2022-07-22T20:04:59;3.97;;;2.40;;
30466;SDS011;17258;52.560;13.046;2022-07-22T20:15:00;2.13;;;1.92;;
30466;SDS011;17258;52.560;13.046;2022-07-22T20:25:01;2.13;;;2.00;;
30466;SDS011;17258;52.560;13.046;2022-07-22T20:35:02;2.83;;;2.30;;
30466;SDS011;17258;52.560;13.046;2022-07-22T20:45:04;2.10;;;1.92;;
30466;SDS011;17258;52.560;13.046;2022-07-22T20:55:06;2.90;;;1.77;;
30466;SDS011;17258;52.560;13.046;2022-07-22T21:05:07;2.60;;;2.40;;
30466;SDS011;17258;52.560;13.046;2022-07-22T21:15:08;3.33;;;2.85;;
30466;SDS011;17258;52.560;13.046;2022-07-22T21:25:09;3.45;;;3.13;;
30466;SDS011;17258;52.560;13.046;2022-07-22T21:35:11;4.80;;;3.53;;
30466;SDS011;17258;52.560;13.046;2022-07-22T21:45:11;10.70;;;3.08;;
30466;SDS011;17258;52.560;13.046;2022-07-22T21:55:12;3.40;;;3.07;;
30466;SDS011;17258;52.560;13.046;2022-07-22T22:05:13;6.10;;;3.42;;
30466;SDS011;17258;52.560;13.046;2022-07-22T22:15:13;3.37;;;2.97;;
30466;SDS011;17258;52.560;13.046;2022-07-22T22:25:14;3.20;;;2.92;;
30466;SDS011;17258;52.560;13.046;2022-07-22T22:35:15;3.73;;;2.80;;
30466;SDS011;17258;52.560;13.046;2022-07-22T22:45:16;4.60;;;3.00;;
30466;SDS011;17258;52.560;13.046;2022-07-22T22:55:16;3.25;;;2.58;;
30466;SDS011;17258;52.560;13.046;2022-07-22T23:05:17;3.30;;;2.37;;
30466;SDS011;17258;52.560;13.046;2022-07-22T23:15:18;2.50;;;2.05;;
30466;SDS011;17258;52.560;13.046;2022-07-22T23:25:18;3.10;;;2.37;;
30466;SDS011;17258;52.560;13.046;2022-07-22T23:35:19;2.33;;;2.20;;
30466;SDS011;17258;52.560;13.046;2022-07-22T23:45:20;4.85;;;2.30;;
30466;SDS011;17258;52.560;13.046;2022-07-22T23:55:21;2.50;;;2.30;;
